createdAt,value
2022-08-03T00:00:31.221Z,-35.00
2022-08-03T00:01:31.205Z,-34.00
2022-08-03T00:02:31.191Z,-48.00
2022-08-03T00:03:31.230Z,-48.00
2022-08-03T00:04:34.201Z,-48.00
2022-08-03T00:05:31.161Z,-48.00
2022-08-03T00:06:36.509Z,-35.00
2022-08-03T00:07:32.122Z,-34.00
2022-08-03T00:08:31.114Z,-35.00
2022-08-03T00:09:35.825Z,-35.00
2022-08-03T00:10:31.130Z,-35.00
2022-08-03T00:11:31.083Z,-35.00
2022-08-03T00:12:31.063Z,-35.00
2022-08-03T00:13:31.045Z,-34.00
2022-08-03T00:14:31.055Z,-35.00
2022-08-03T00:15:31.034Z,-34.00
2022-08-03T00:16:31.956Z,-34.00
2022-08-03T00:17:30.997Z,-34.00
2022-08-03T00:18:31.989Z,-35.00
2022-08-03T00:19:30.976Z,-34.00
2022-08-03T00:20:30.946Z,-48.00
2022-08-03T00:21:30.946Z,-34.00
2022-08-03T00:22:30.930Z,-35.00
2022-08-03T00:23:51.716Z,-35.00
2022-08-03T00:24:31.909Z,-34.00
2022-08-03T00:25:30.898Z,-48.00
2022-08-03T00:26:30.868Z,-34.00
2022-08-03T00:27:32.534Z,-34.00
2022-08-03T00:28:30.849Z,-35.00
2022-08-03T00:29:30.860Z,-35.00
2022-08-03T00:30:31.045Z,-48.00
2022-08-03T00:31:52.777Z,-48.00
2022-08-03T00:32:31.790Z,-34.00
2022-08-03T00:33:30.790Z,-35.00
2022-08-03T00:34:36.578Z,-34.00
2022-08-03T00:35:49.234Z,-34.00
2022-08-03T00:36:31.747Z,-34.00
2022-08-03T00:37:40.688Z,-35.00
2022-08-03T00:38:31.722Z,-35.00
2022-08-03T00:39:30.712Z,-34.00
2022-08-03T00:40:30.685Z,-34.00
2022-08-03T00:41:30.683Z,-34.00
2022-08-03T00:42:30.663Z,-34.00
2022-08-03T00:43:30.655Z,-35.00
2022-08-03T00:44:30.644Z,-35.00
2022-08-03T00:45:30.626Z,-48.00
2022-08-03T00:46:30.606Z,-35.00
2022-08-03T00:47:30.603Z,-34.00
2022-08-03T00:48:33.690Z,-34.00
2022-08-03T00:49:30.628Z,-48.00
2022-08-03T00:50:30.560Z,-34.00
2022-08-03T00:51:30.536Z,-35.00
2022-08-03T00:52:30.525Z,-35.00
2022-08-03T00:53:30.515Z,-35.00
2022-08-03T00:54:30.518Z,-35.00
2022-08-03T00:55:30.501Z,-35.00
2022-08-03T00:56:30.469Z,-33.00
2022-08-03T00:57:30.462Z,-35.00
2022-08-03T00:58:30.442Z,-34.00
2022-08-03T00:59:30.456Z,-48.00
2022-08-03T01:00:30.420Z,-35.00
2022-08-03T01:01:32.493Z,-34.00
2022-08-03T01:02:30.392Z,-34.00
2022-08-03T01:03:30.389Z,-34.00
2022-08-03T01:04:30.382Z,-35.00
2022-08-03T01:05:30.368Z,-35.00
2022-08-03T01:06:30.343Z,-48.00
2022-08-03T01:07:30.322Z,-35.00
2022-08-03T01:08:38.064Z,-100.00
2022-08-03T01:09:30.336Z,-89.00
2022-08-03T01:10:31.613Z,-84.00
2022-08-03T01:11:30.602Z,-85.00
2022-08-03T01:12:31.170Z,-85.00
2022-08-03T01:14:01.290Z,-85.00
2022-08-03T01:14:31.287Z,-89.00
2022-08-03T01:15:30.245Z,-85.00
2022-08-03T01:16:36.621Z,-89.00
2022-08-03T01:17:31.225Z,-90.00
2022-08-03T01:18:30.264Z,-89.00
2022-08-03T01:19:30.178Z,-89.00
2022-08-03T01:20:30.177Z,-86.00
2022-08-03T01:21:30.182Z,-86.00
2022-08-03T01:22:30.203Z,-89.00
2022-08-03T01:23:30.128Z,-86.00
2022-08-03T01:24:30.109Z,-89.00
2022-08-03T01:25:37.524Z,-90.00
2022-08-03T01:26:30.101Z,-87.00
2022-08-03T01:27:30.372Z,-84.00
2022-08-03T01:28:33.909Z,-89.00
2022-08-03T01:29:30.391Z,-89.00
2022-08-03T01:30:30.058Z,-85.00
2022-08-03T01:31:30.293Z,-89.00
2022-08-03T01:33:00.339Z,-84.00
2022-08-03T01:33:31.050Z,-88.00
2022-08-03T01:34:29.971Z,-84.00
2022-08-03T01:35:30.199Z,-85.00
2022-08-03T01:36:33.899Z,-85.00
2022-08-03T01:37:29.990Z,-89.00
2022-08-03T01:38:29.946Z,-85.00
2022-08-03T01:39:30.754Z,-85.00
2022-08-03T01:40:29.923Z,-86.00
2022-08-03T01:41:30.303Z,-88.00
2022-08-03T01:42:31.724Z,-89.00
2022-08-03T01:44:27.264Z,-89.00
2022-08-03T01:44:31.116Z,-85.00
2022-08-03T01:45:29.966Z,-85.00
2022-08-03T01:46:30.318Z,-88.00
2022-08-03T01:47:29.833Z,-89.00
2022-08-03T01:48:30.082Z,-89.00
2022-08-03T01:49:40.054Z,-85.00
2022-08-03T01:50:29.991Z,-89.00
2022-08-03T01:51:57.839Z,-89.00
2022-08-03T01:52:32.422Z,-86.00
2022-08-03T01:53:30.418Z,-85.00
2022-08-03T01:54:33.797Z,-89.00
2022-08-03T01:55:29.986Z,-85.00
2022-08-03T01:56:30.024Z,-88.00
2022-08-03T01:57:29.939Z,-88.00
2022-08-03T01:58:29.721Z,-86.00
2022-08-03T01:59:30.684Z,-89.00
2022-08-03T02:00:30.443Z,-89.00
2022-08-03T02:02:29.142Z,-88.00
2022-08-03T02:02:34.179Z,-89.00
2022-08-03T02:03:29.728Z,-85.00
2022-08-03T02:04:37.382Z,-87.00
2022-08-03T02:05:29.797Z,-88.00
2022-08-03T02:07:00.361Z,-89.00
2022-08-03T02:07:30.557Z,-88.00
2022-08-03T02:08:29.586Z,-90.00
2022-08-03T02:09:30.274Z,-88.00
2022-08-03T02:10:35.378Z,-85.00
2022-08-03T02:11:30.545Z,-84.00
2022-08-03T02:12:33.693Z,-89.00
2022-08-03T02:13:30.343Z,-86.00
2022-08-03T02:14:30.298Z,-88.00
2022-08-03T02:15:30.450Z,-88.00
2022-08-03T02:16:29.436Z,-89.00
2022-08-03T02:17:38.504Z,-84.00
2022-08-03T02:18:30.435Z,-84.00
2022-08-03T02:19:33.783Z,-88.00
2022-08-03T02:20:30.664Z,-89.00
2022-08-03T02:21:57.112Z,-89.00
2022-08-03T02:22:30.609Z,-88.00
2022-08-03T02:23:30.152Z,-84.00
2022-08-03T02:24:30.387Z,-86.00
2022-08-03T02:25:29.646Z,-85.00
2022-08-03T02:26:29.577Z,-88.00
2022-08-03T02:27:34.719Z,-85.00
2022-08-03T02:28:29.581Z,-89.00
2022-08-03T02:29:39.653Z,-84.00
2022-08-03T02:30:30.239Z,-88.00
2022-08-03T02:31:29.238Z,-90.00
2022-08-03T02:32:29.933Z,-89.00
2022-08-03T02:33:29.953Z,-88.00
2022-08-03T02:34:29.353Z,-85.00
2022-08-03T02:35:30.399Z,-89.00
2022-08-03T02:36:31.464Z,-88.00
2022-08-03T02:37:30.146Z,-89.00
2022-08-03T02:38:29.459Z,-85.00
2022-08-03T02:39:29.428Z,-86.00
2022-08-03T02:40:29.469Z,-89.00
2022-08-03T02:41:29.850Z,-89.00
2022-08-03T02:42:29.074Z,-84.00
2022-08-03T02:43:29.996Z,-85.00
2022-08-03T02:44:30.051Z,-86.00
2022-08-03T02:45:29.188Z,-84.00
2022-08-03T02:46:29.071Z,-89.00
2022-08-03T02:47:53.926Z,-84.00
2022-08-03T02:48:30.138Z,-87.00
2022-08-03T02:49:49.540Z,-88.00
2022-08-03T02:50:30.347Z,-84.00
2022-08-03T02:51:29.369Z,-87.00
2022-08-03T02:52:29.239Z,-88.00
2022-08-03T02:53:29.320Z,-88.00
2022-08-03T02:54:28.942Z,-84.00
2022-08-03T02:55:33.276Z,-85.00
2022-08-03T02:56:29.963Z,-85.00
2022-08-03T02:57:29.210Z,-90.00
2022-08-03T02:58:30.258Z,-88.00
2022-08-03T02:59:28.932Z,-85.00
2022-08-03T03:00:29.079Z,-88.00
2022-08-03T03:01:29.120Z,-84.00
2022-08-03T03:02:28.829Z,-88.00
2022-08-03T03:03:28.936Z,-84.00
2022-08-03T03:04:33.247Z,-85.00
2022-08-03T03:05:53.052Z,-84.00
2022-08-03T03:06:30.123Z,-89.00
2022-08-03T03:07:29.447Z,-86.00
2022-08-03T03:08:29.691Z,-85.00
2022-08-03T03:09:29.228Z,-89.00
2022-08-03T03:10:29.752Z,-89.00
2022-08-03T03:11:33.027Z,-85.00
2022-08-03T03:12:28.749Z,-89.00
2022-08-03T03:13:31.432Z,-85.00
2022-08-03T03:14:33.739Z,-84.00
2022-08-03T03:15:30.025Z,-89.00
2022-08-03T03:16:28.936Z,-84.00
2022-08-03T03:17:28.624Z,-85.00
2022-08-03T03:18:28.593Z,-85.00
2022-08-03T03:19:28.670Z,-84.00
2022-08-03T03:20:30.077Z,-88.00
2022-08-03T03:21:28.546Z,-88.00
2022-08-03T03:22:33.245Z,-84.00
2022-08-03T03:23:28.558Z,-89.00
2022-08-03T03:24:28.517Z,-85.00
2022-08-03T03:25:28.660Z,-85.00
2022-08-03T03:26:28.530Z,-85.00
2022-08-03T03:27:28.749Z,-85.00
2022-08-03T03:28:28.632Z,-89.00
2022-08-03T03:29:28.456Z,-84.00
2022-08-03T03:30:28.665Z,-84.00
2022-08-03T03:31:28.693Z,-84.00
2022-08-03T03:32:28.421Z,-88.00
2022-08-03T03:33:28.782Z,-89.00
2022-08-03T03:34:28.685Z,-85.00
2022-08-03T03:35:29.066Z,-88.00
2022-08-03T03:36:28.750Z,-85.00
2022-08-03T03:37:28.712Z,-85.00
2022-08-03T03:38:28.385Z,-83.00
2022-08-03T03:39:28.340Z,-89.00
2022-08-03T03:40:28.352Z,-85.00
2022-08-03T03:41:33.866Z,-84.00
2022-08-03T03:42:28.320Z,-85.00
2022-08-03T03:43:28.260Z,-85.00
2022-08-03T03:44:28.241Z,-85.00
2022-08-03T03:45:28.215Z,-84.00
2022-08-03T03:46:28.218Z,-89.00
2022-08-03T03:47:32.979Z,-89.00
2022-08-03T03:48:28.290Z,-85.00
2022-08-03T03:49:28.235Z,-86.00
2022-08-03T03:50:29.210Z,-89.00
2022-08-03T03:51:28.438Z,-88.00
2022-08-03T03:52:28.192Z,-88.00
2022-08-03T03:53:28.344Z,-87.00
2022-08-03T03:54:29.298Z,-84.00
2022-08-03T03:55:28.400Z,-89.00
2022-08-03T03:56:29.079Z,-89.00
2022-08-03T03:57:28.129Z,-84.00
2022-08-03T03:58:28.119Z,-84.00
2022-08-03T03:59:28.865Z,-89.00
2022-08-03T04:00:28.167Z,-85.00
2022-08-03T04:01:28.043Z,-88.00
2022-08-03T04:02:28.117Z,-88.00
2022-08-03T04:03:28.003Z,-84.00
2022-08-03T04:04:28.030Z,-84.00
2022-08-03T04:05:28.045Z,-85.00
2022-08-03T04:06:28.001Z,-88.00
2022-08-03T04:07:27.955Z,-85.00
2022-08-03T04:08:28.136Z,-84.00
2022-08-03T04:09:30.675Z,-85.00
2022-08-03T04:10:28.223Z,-89.00
2022-08-03T04:11:29.266Z,-85.00
2022-08-03T04:12:27.906Z,-85.00
2022-08-03T04:13:28.116Z,-85.00
2022-08-03T04:14:28.332Z,-84.00
2022-08-03T04:15:28.200Z,-84.00
2022-08-03T04:16:28.839Z,-84.00
2022-08-03T04:17:27.827Z,-84.00
2022-08-03T04:18:28.078Z,-84.00
2022-08-03T04:19:27.843Z,-89.00
2022-08-03T04:20:28.079Z,-88.00
2022-08-03T04:21:27.775Z,-85.00
2022-08-03T04:22:27.730Z,-88.00
2022-08-03T04:23:27.824Z,-88.00
2022-08-03T04:24:27.709Z,-84.00
2022-08-03T04:25:28.066Z,-89.00
2022-08-03T04:26:27.661Z,-85.00
2022-08-03T04:27:27.758Z,-86.00
2022-08-03T04:28:30.807Z,-89.00
2022-08-03T04:29:28.596Z,-88.00
2022-08-03T04:30:27.748Z,-88.00
2022-08-03T04:31:27.725Z,-85.00
2022-08-03T04:32:28.299Z,-89.00
2022-08-03T04:33:29.403Z,-84.00
2022-08-03T04:34:27.726Z,-89.00
2022-08-03T04:35:58.647Z,-84.00
2022-08-03T04:36:28.560Z,-89.00
2022-08-03T04:37:27.606Z,-83.00
2022-08-03T04:38:27.506Z,-83.00
2022-08-03T04:39:27.520Z,-88.00
2022-08-03T04:40:29.785Z,-84.00
2022-08-03T04:41:28.163Z,-88.00
2022-08-03T04:42:27.474Z,-88.00
2022-08-03T04:43:27.493Z,-83.00
2022-08-03T04:44:28.328Z,-84.00
2022-08-03T04:45:27.515Z,-85.00
2022-08-03T04:46:27.452Z,-87.00
2022-08-03T04:47:27.646Z,-83.00
2022-08-03T04:48:27.379Z,-84.00
2022-08-03T04:49:28.231Z,-84.00
2022-08-03T04:50:27.382Z,-88.00
2022-08-03T04:51:27.692Z,-84.00
2022-08-03T04:52:27.349Z,-88.00
2022-08-03T04:53:27.490Z,-89.00
2022-08-03T04:54:27.409Z,-89.00
2022-08-03T04:55:27.298Z,-88.00
2022-08-03T04:56:27.503Z,-88.00
2022-08-03T04:57:27.294Z,-86.00
2022-08-03T04:58:27.278Z,-89.00
2022-08-03T04:59:27.250Z,-89.00
2022-08-03T05:00:27.353Z,-88.00
2022-08-03T05:01:27.299Z,-86.00
2022-08-03T05:02:27.464Z,-88.00
2022-08-03T05:03:27.239Z,-85.00
2022-08-03T05:04:27.198Z,-85.00
2022-08-03T05:05:50.206Z,-88.00
2022-08-03T05:06:28.193Z,-90.00
2022-08-03T05:07:35.386Z,-85.00
2022-08-03T05:08:28.449Z,-89.00
2022-08-03T05:09:52.229Z,-89.00
2022-08-03T05:10:28.416Z,-85.00
2022-08-03T05:11:27.454Z,-85.00
2022-08-03T05:12:32.072Z,-88.00
2022-08-03T05:13:28.072Z,-88.00
2022-08-03T05:14:28.051Z,-84.00
2022-08-03T05:15:27.110Z,-86.00
2022-08-03T05:16:27.309Z,-89.00
2022-08-03T05:17:27.018Z,-85.00
2022-08-03T05:18:26.971Z,-88.00
2022-08-03T05:19:26.986Z,-83.00
2022-08-03T05:20:27.011Z,-88.00
2022-08-03T05:21:26.945Z,-84.00
2022-08-03T05:22:27.943Z,-89.00
2022-08-03T05:23:26.924Z,-84.00
2022-08-03T05:24:26.999Z,-85.00
2022-08-03T05:25:27.498Z,-88.00
2022-08-03T05:26:26.893Z,-84.00
2022-08-03T05:27:26.888Z,-88.00
2022-08-03T05:28:26.911Z,-83.00
2022-08-03T05:29:26.858Z,-84.00
2022-08-03T05:30:33.149Z,-85.00
2022-08-03T05:31:27.852Z,-85.00
2022-08-03T05:32:27.291Z,-88.00
2022-08-03T05:33:26.905Z,-84.00
2022-08-03T05:34:26.770Z,-85.00
2022-08-03T05:35:57.751Z,-85.00
2022-08-03T05:36:28.766Z,-85.00
2022-08-03T05:37:26.749Z,-85.00
2022-08-03T05:38:28.587Z,-88.00
2022-08-03T05:39:26.738Z,-89.00
2022-08-03T05:40:26.905Z,-89.00
2022-08-03T05:41:37.089Z,-84.00
2022-08-03T05:42:28.642Z,-89.00
2022-08-03T05:43:26.638Z,-88.00
2022-08-03T05:44:26.694Z,-83.00
2022-08-03T05:45:28.532Z,-84.00
2022-08-03T05:46:26.646Z,-85.00
2022-08-03T05:47:26.602Z,-85.00
2022-08-03T05:48:26.578Z,-89.00
2022-08-03T05:49:27.025Z,-84.00
2022-08-03T05:50:26.873Z,-88.00
2022-08-03T05:51:26.830Z,-84.00
2022-08-03T05:52:39.211Z,-84.00
2022-08-03T05:53:26.613Z,-84.00
2022-08-03T05:54:26.511Z,-85.00
2022-08-03T05:55:27.544Z,-86.00
2022-08-03T05:56:27.291Z,-85.00
2022-08-03T05:57:26.791Z,-84.00
2022-08-03T05:58:26.479Z,-85.00
2022-08-03T05:59:38.103Z,-86.00
2022-08-03T06:00:27.450Z,-84.00
2022-08-03T06:01:26.464Z,-84.00
2022-08-03T06:02:27.259Z,-88.00
2022-08-03T06:03:27.136Z,-83.00
2022-08-03T06:04:26.398Z,-85.00
2022-08-03T06:05:26.364Z,-83.00
2022-08-03T06:06:30.514Z,-86.00
2022-08-03T06:07:27.347Z,-84.00
2022-08-03T06:08:26.370Z,-85.00
2022-08-03T06:10:34.108Z,-89.00
2022-08-03T06:10:35.550Z,-84.00
2022-08-03T06:11:27.326Z,-83.00
2022-08-03T06:12:26.354Z,-84.00
2022-08-03T06:13:26.265Z,-84.00
2022-08-03T06:14:26.255Z,-88.00
2022-08-03T06:15:26.226Z,-84.00
2022-08-03T06:16:27.087Z,-89.00
2022-08-03T06:17:26.660Z,-85.00
2022-08-03T06:18:26.199Z,-88.00
2022-08-03T06:19:26.173Z,-83.00
2022-08-03T06:20:28.631Z,-83.00
2022-08-03T06:21:27.159Z,-89.00
2022-08-03T06:22:26.171Z,-88.00
2022-08-03T06:23:53.433Z,-84.00
2022-08-03T06:24:27.103Z,-84.00
2022-08-03T06:25:26.122Z,-84.00
2022-08-03T06:26:26.112Z,-89.00
2022-08-03T06:27:36.467Z,-88.00
2022-08-03T06:29:27.363Z,-84.00
2022-08-03T06:30:26.331Z,-85.00
2022-08-03T06:31:26.218Z,-84.00
2022-08-03T06:32:27.011Z,-89.00
2022-08-03T06:33:48.238Z,-87.00
2022-08-03T06:34:32.731Z,-87.00
2022-08-03T06:35:27.030Z,-85.00
2022-08-03T06:36:25.954Z,-89.00
2022-08-03T06:37:25.952Z,-84.00
2022-08-03T06:38:25.941Z,-88.00
2022-08-03T06:39:26.063Z,-84.00
2022-08-03T06:40:25.929Z,-89.00
2022-08-03T06:41:25.893Z,-85.00
2022-08-03T06:42:25.879Z,-89.00
2022-08-03T06:43:26.213Z,-85.00
2022-08-03T06:44:26.102Z,-85.00
2022-08-03T06:45:25.862Z,-90.00
2022-08-03T06:46:26.832Z,-88.00
2022-08-03T06:47:25.890Z,-86.00
2022-08-03T06:48:25.796Z,-85.00
2022-08-03T06:49:25.849Z,-88.00
2022-08-03T06:50:26.306Z,-84.00
2022-08-03T06:52:03.824Z,-85.00
2022-08-03T06:52:37.847Z,-84.00
2022-08-03T06:53:27.701Z,-84.00
2022-08-03T06:54:25.736Z,-89.00
2022-08-03T06:55:25.738Z,-84.00
2022-08-03T06:56:25.729Z,-84.00
2022-08-03T06:57:26.118Z,-86.00
2022-08-03T06:58:25.747Z,-87.00
2022-08-03T07:00:10.362Z,-84.00
2022-08-03T07:00:26.696Z,-86.00
2022-08-03T07:01:25.680Z,-89.00
2022-08-03T07:02:28.213Z,-87.00
2022-08-03T07:03:25.647Z,-86.00
2022-08-03T07:04:25.641Z,-86.00
2022-08-03T07:05:25.680Z,-87.00
2022-08-03T07:06:25.595Z,-85.00
2022-08-03T07:07:25.849Z,-85.00
2022-08-03T07:08:33.397Z,-84.00
2022-08-03T07:09:26.530Z,-85.00
2022-08-03T07:10:25.563Z,-88.00
2022-08-03T07:11:25.555Z,-87.00
2022-08-03T07:12:25.510Z,-88.00
2022-08-03T07:13:25.632Z,-89.00
2022-08-03T07:14:25.706Z,-84.00
2022-08-03T07:15:55.343Z,-84.00
2022-08-03T07:16:27.535Z,-85.00
2022-08-03T07:17:25.493Z,-84.00
2022-08-03T07:18:29.578Z,-85.00
2022-08-03T07:19:25.426Z,-84.00
2022-08-03T07:20:26.514Z,-87.00
2022-08-03T07:21:27.103Z,-84.00
2022-08-03T07:22:25.693Z,-89.00
2022-08-03T07:23:25.811Z,-84.00
2022-08-03T07:24:25.384Z,-87.00
2022-08-03T07:25:25.373Z,-84.00
2022-08-03T07:26:25.380Z,-84.00
2022-08-03T07:27:25.334Z,-85.00
2022-08-03T07:28:25.347Z,-85.00
2022-08-03T07:29:25.410Z,-85.00
2022-08-03T07:30:25.275Z,-89.00
2022-08-03T07:31:25.307Z,-89.00
2022-08-03T07:32:25.378Z,-87.00
2022-08-03T07:33:25.213Z,-84.00
2022-08-03T07:34:25.253Z,-90.00
2022-08-03T07:35:25.573Z,-89.00
2022-08-03T07:36:25.163Z,-89.00
2022-08-03T07:37:25.426Z,-84.00
2022-08-03T07:38:25.176Z,-88.00
2022-08-03T07:39:25.169Z,-85.00
2022-08-03T07:40:31.757Z,-89.00
2022-08-03T07:41:26.154Z,-85.00
2022-08-03T07:42:25.885Z,-85.00
2022-08-03T07:43:25.173Z,-84.00
2022-08-03T07:44:25.086Z,-86.00
2022-08-03T07:45:25.089Z,-85.00
2022-08-03T07:46:25.081Z,-85.00
2022-08-03T07:47:25.082Z,-85.00
2022-08-03T07:48:26.026Z,-84.00
2022-08-03T07:49:26.059Z,-85.00
2022-08-03T07:50:25.008Z,-85.00
2022-08-03T07:51:25.949Z,-84.00
2022-08-03T07:52:28.302Z,-89.00
2022-08-03T07:53:25.035Z,-89.00
2022-08-03T07:54:24.962Z,-86.00
2022-08-03T07:55:25.071Z,-85.00
2022-08-03T07:56:25.200Z,-84.00
2022-08-03T07:57:25.111Z,-84.00
2022-08-03T07:58:24.968Z,-85.00
2022-08-03T07:59:24.889Z,-84.00
2022-08-03T08:00:24.940Z,-89.00
2022-08-03T08:01:25.365Z,-86.00
2022-08-03T08:02:24.949Z,-86.00
2022-08-03T08:03:25.095Z,-90.00
2022-08-03T08:04:24.859Z,-89.00
2022-08-03T08:05:24.868Z,-89.00
2022-08-03T08:06:24.933Z,-84.00
2022-08-03T08:07:24.839Z,-86.00
2022-08-03T08:08:25.234Z,-88.00
2022-08-03T08:09:24.920Z,-84.00
2022-08-03T08:10:24.759Z,-85.00
2022-08-03T08:11:24.757Z,-86.00
2022-08-03T08:12:24.716Z,-89.00
2022-08-03T08:13:24.724Z,-84.00
2022-08-03T08:14:24.864Z,-85.00
2022-08-03T08:15:24.736Z,-90.00
2022-08-03T08:16:24.715Z,-85.00
2022-08-03T08:17:24.672Z,-89.00
2022-08-03T08:18:24.787Z,-86.00
2022-08-03T08:19:24.621Z,-85.00
2022-08-03T08:20:30.465Z,-86.00
2022-08-03T08:21:25.658Z,-88.00
2022-08-03T08:22:30.073Z,-84.00
2022-08-03T08:23:42.799Z,-90.00
2022-08-03T08:24:25.673Z,-86.00
2022-08-03T08:25:24.891Z,-85.00
2022-08-03T08:26:24.606Z,-86.00
2022-08-03T08:27:24.513Z,-85.00
2022-08-03T08:28:32.666Z,-90.00
2022-08-03T08:29:25.905Z,-86.00
2022-08-03T08:30:24.602Z,-86.00
2022-08-03T08:31:25.438Z,-90.00
2022-08-03T08:32:25.146Z,-85.00
2022-08-03T08:33:25.864Z,-89.00
2022-08-03T08:34:25.491Z,-90.00
2022-08-03T08:35:24.725Z,-90.00
2022-08-03T08:36:24.392Z,-85.00
2022-08-03T08:37:24.410Z,-86.00
2022-08-03T08:38:25.068Z,-90.00
2022-08-03T08:39:24.355Z,-90.00
2022-08-03T08:40:24.451Z,-86.00
2022-08-03T08:41:24.620Z,-90.00
2022-08-03T08:42:25.339Z,-85.00
2022-08-03T08:43:24.337Z,-84.00
2022-08-03T08:44:24.484Z,-86.00
2022-08-03T08:45:25.128Z,-90.00
2022-08-03T08:46:24.402Z,-90.00
2022-08-03T08:47:24.345Z,-90.00
2022-08-03T08:48:25.093Z,-90.00
2022-08-03T08:49:25.376Z,-89.00
2022-08-03T08:50:27.715Z,-85.00
2022-08-03T08:51:24.321Z,-85.00
2022-08-03T08:52:32.029Z,-85.00
2022-08-03T08:53:27.167Z,-86.00
2022-08-03T08:54:24.171Z,-84.00
2022-08-03T08:55:28.609Z,-90.00
2022-08-03T08:56:24.159Z,-86.00
2022-08-03T08:57:41.804Z,-87.00
2022-08-03T08:58:28.588Z,-90.00
2022-08-03T08:59:25.345Z,-86.00
2022-08-03T09:00:24.116Z,-89.00
2022-08-03T09:01:26.939Z,-90.00
2022-08-03T09:02:24.066Z,-86.00
2022-08-03T09:03:29.582Z,-90.00
2022-08-03T09:04:25.174Z,-86.00
2022-08-03T09:05:36.228Z,-90.00
2022-08-03T09:06:25.082Z,-90.00
2022-08-03T09:07:25.004Z,-86.00
2022-08-03T09:08:23.996Z,-85.00
2022-08-03T09:10:05.277Z,-89.00
2022-08-03T09:10:26.234Z,-89.00
2022-08-03T09:11:52.470Z,-86.00
2022-08-03T09:12:42.253Z,-90.00
2022-08-03T09:13:24.969Z,-90.00
2022-08-03T09:14:39.367Z,-90.00
2022-08-03T09:15:24.949Z,-86.00
2022-08-03T09:16:24.600Z,-90.00
2022-08-03T09:17:23.897Z,-87.00
2022-08-03T09:18:23.870Z,-85.00
2022-08-03T09:19:25.298Z,-90.00
2022-08-03T09:20:24.628Z,-87.00
2022-08-03T09:21:31.589Z,-86.00
2022-08-03T09:22:25.070Z,-90.00
2022-08-03T09:24:00.708Z,-86.00
2022-08-03T09:24:40.833Z,-90.00
2022-08-03T09:25:25.730Z,-85.00
2022-08-03T09:26:23.770Z,-89.00
2022-08-03T09:27:26.154Z,-86.00
2022-08-03T09:28:32.279Z,-90.00
2022-08-03T09:29:26.172Z,-89.00
2022-08-03T09:30:34.487Z,-85.00
2022-08-03T09:31:24.738Z,-88.00
2022-08-03T09:32:23.764Z,-86.00
2022-08-03T09:33:24.587Z,-90.00
2022-08-03T09:34:24.715Z,-86.00
2022-08-03T09:35:27.978Z,-90.00
2022-08-03T09:36:25.588Z,-87.00
2022-08-03T09:37:23.611Z,-85.00
2022-08-03T09:38:24.725Z,-85.00
2022-08-03T09:39:40.249Z,-89.00
2022-08-03T09:40:24.872Z,-86.00
2022-08-03T09:41:23.642Z,-90.00
2022-08-03T09:42:24.163Z,-85.00
2022-08-03T09:43:24.537Z,-86.00
2022-08-03T09:44:25.407Z,-89.00
2022-08-03T09:45:23.559Z,-87.00
2022-08-03T09:46:23.880Z,-88.00
2022-08-03T09:47:28.030Z,-90.00
2022-08-03T09:48:23.495Z,-86.00
2022-08-03T09:49:23.780Z,-87.00
2022-08-03T09:50:23.504Z,-89.00
2022-08-03T09:51:33.273Z,-85.00
2022-08-03T09:52:32.074Z,-86.00
2022-08-03T09:53:24.405Z,-90.00
2022-08-03T09:54:23.462Z,-86.00
2022-08-03T09:56:32.864Z,-87.00
2022-08-03T09:56:35.802Z,-87.00
2022-08-03T09:57:24.708Z,-86.00
2022-08-03T09:58:23.845Z,-89.00
2022-08-03T09:59:24.334Z,-90.00
2022-08-03T10:00:23.449Z,-90.00
2022-08-03T10:01:24.009Z,-87.00
2022-08-03T10:02:24.297Z,-85.00
2022-08-03T10:03:23.388Z,-87.00
2022-08-03T10:04:23.309Z,-89.00
2022-08-03T10:05:23.281Z,-87.00
2022-08-03T10:06:28.735Z,-90.00
2022-08-03T10:07:23.238Z,-90.00
2022-08-03T10:08:40.850Z,-90.00
2022-08-03T10:09:26.114Z,-86.00
2022-08-03T10:10:30.013Z,-85.00
2022-08-03T10:11:24.176Z,-89.00
2022-08-03T10:12:23.189Z,-85.00
2022-08-03T10:13:23.161Z,-85.00
2022-08-03T10:14:23.177Z,-85.00
2022-08-03T10:16:21.867Z,-86.00
2022-08-03T10:16:25.658Z,-91.00
2022-08-03T10:17:23.207Z,-87.00
2022-08-03T10:18:23.492Z,-86.00
2022-08-03T10:19:23.100Z,-86.00
2022-08-03T10:20:26.997Z,-85.00
2022-08-03T10:21:23.191Z,-86.00
2022-08-03T10:22:23.102Z,-91.00
2022-08-03T10:23:23.400Z,-91.00
2022-08-03T10:24:23.305Z,-86.00
2022-08-03T10:25:22.991Z,-90.00
2022-08-03T10:26:24.911Z,-86.00
2022-08-03T10:27:23.229Z,-87.00
2022-08-03T10:28:23.029Z,-90.00
2022-08-03T10:29:25.674Z,-87.00
2022-08-03T10:30:26.270Z,-90.00
2022-08-03T10:31:23.186Z,-86.00
2022-08-03T10:32:23.082Z,-88.00
2022-08-03T10:33:51.149Z,-87.00
2022-08-03T10:34:23.967Z,-86.00
2022-08-03T10:35:25.679Z,-85.00
2022-08-03T10:36:22.961Z,-90.00
2022-08-03T10:37:23.201Z,-86.00
2022-08-03T10:38:22.878Z,-90.00
2022-08-03T10:39:22.830Z,-85.00
2022-08-03T10:40:33.399Z,-86.00
2022-08-03T10:41:25.571Z,-90.00
2022-08-03T10:42:22.928Z,-88.00
2022-08-03T10:43:22.826Z,-85.00
2022-08-03T10:44:22.810Z,-90.00
2022-08-03T10:45:22.816Z,-90.00
2022-08-03T10:46:22.741Z,-90.00
2022-08-03T10:47:23.490Z,-86.00
2022-08-03T10:48:22.718Z,-90.00
2022-08-03T10:49:34.301Z,-91.00
2022-08-03T10:50:23.684Z,-87.00
2022-08-03T10:51:22.666Z,-89.00
2022-08-03T10:52:32.580Z,-91.00
2022-08-03T10:53:23.697Z,-90.00
2022-08-03T10:54:22.668Z,-86.00
2022-08-03T10:55:22.730Z,-86.00
2022-08-03T10:56:28.642Z,-86.00
2022-08-03T10:57:25.648Z,-90.00
2022-08-03T10:58:30.486Z,-91.00
2022-08-03T10:59:27.664Z,-90.00
2022-08-03T11:00:22.678Z,-86.00
2022-08-03T11:01:22.659Z,-90.00
2022-08-03T11:02:22.580Z,-87.00
2022-08-03T11:03:22.560Z,-88.00
2022-08-03T11:04:22.534Z,-87.00
2022-08-03T11:05:22.552Z,-84.00
2022-08-03T11:06:23.287Z,-87.00
2022-08-03T11:07:22.786Z,-86.00
2022-08-03T11:08:22.635Z,-85.00
2022-08-03T11:09:27.179Z,-90.00
2022-08-03T11:10:23.303Z,-92.00
2022-08-03T11:11:22.472Z,-86.00
2022-08-03T11:12:22.435Z,-86.00
2022-08-03T11:13:23.461Z,-90.00
2022-08-03T11:14:23.336Z,-91.00
2022-08-03T11:15:22.460Z,-87.00
2022-08-03T11:16:24.280Z,-86.00
2022-08-03T11:17:23.199Z,-90.00
2022-08-03T11:18:26.821Z,-86.00
2022-08-03T11:19:22.510Z,-86.00
2022-08-03T11:20:22.340Z,-86.00
2022-08-03T11:21:22.401Z,-90.00
2022-08-03T11:22:22.587Z,-91.00
2022-08-03T11:24:02.889Z,-91.00
2022-08-03T11:24:23.366Z,-85.00
2022-08-03T11:26:31.456Z,-37.00
2022-08-03T11:27:31.428Z,-37.00
2022-08-03T11:28:31.479Z,-45.00
2022-08-03T11:29:31.420Z,-38.00
2022-08-03T11:30:31.402Z,-37.00
2022-08-03T11:32:32.379Z,-37.00
2022-08-03T11:33:31.352Z,-37.00
2022-08-03T11:34:31.411Z,-37.00
2022-08-03T11:35:31.332Z,-37.00
2022-08-03T11:36:32.399Z,-38.00
2022-08-03T11:37:33.377Z,-37.00
2022-08-03T11:38:31.294Z,-37.00
2022-08-03T11:39:31.295Z,-38.00
2022-08-03T11:40:31.274Z,-45.00
2022-08-03T11:41:31.269Z,-37.00
2022-08-03T11:42:32.206Z,-37.00
2022-08-03T11:43:32.197Z,-37.00
2022-08-03T11:44:31.227Z,-37.00
2022-08-03T11:45:31.214Z,-37.00
2022-08-03T11:46:32.157Z,-38.00
2022-08-03T11:47:31.189Z,-45.00
2022-08-03T11:48:31.169Z,-45.00
2022-08-03T11:49:31.214Z,-45.00
2022-08-03T11:50:31.201Z,-45.00
2022-08-03T11:51:31.141Z,-37.00
2022-08-03T11:52:31.122Z,-37.00
2022-08-03T11:53:31.111Z,-45.00
2022-08-03T11:54:31.102Z,-38.00
2022-08-03T11:55:32.126Z,-45.00
2022-08-03T11:56:31.157Z,-45.00
2022-08-03T11:59:10.817Z,-45.00
2022-08-03T11:59:12.829Z,-45.00
2022-08-03T11:59:33.004Z,-46.00
2022-08-03T12:00:31.030Z,-45.00
2022-08-03T12:01:31.025Z,-45.00
2022-08-03T12:02:30.996Z,-37.00
2022-08-03T12:03:31.102Z,-38.00
2022-08-03T12:04:31.959Z,-38.00
2022-08-03T12:05:30.976Z,-37.00
2022-08-03T12:06:30.949Z,-38.00
2022-08-03T12:08:03.970Z,-38.00
2022-08-03T12:08:31.937Z,-37.00
2022-08-03T12:09:31.878Z,-37.00
2022-08-03T12:10:30.901Z,-38.00
2022-08-03T12:11:30.891Z,-38.00
2022-08-03T12:12:30.874Z,-37.00
2022-08-03T12:14:30.063Z,-38.00
2022-08-03T12:14:49.020Z,-38.00
2022-08-03T12:15:31.843Z,-38.00
2022-08-03T12:16:30.823Z,-37.00
2022-08-03T12:17:30.824Z,-37.00
2022-08-03T12:18:30.815Z,-38.00
2022-08-03T12:19:31.765Z,-37.00
2022-08-03T12:20:31.276Z,-37.00
2022-08-03T12:21:30.773Z,-38.00
2022-08-03T12:22:31.556Z,-38.00
2022-08-03T12:23:32.872Z,-37.00
2022-08-03T12:24:31.738Z,-37.00
2022-08-03T12:25:38.542Z,-38.00
2022-08-03T12:26:31.719Z,-38.00
2022-08-03T12:27:30.699Z,-37.00
2022-08-03T12:28:36.674Z,-37.00
2022-08-03T12:29:31.683Z,-38.00
2022-08-03T12:30:32.639Z,-38.00
2022-08-03T12:31:30.652Z,-38.00